Flight Track Log - Related Links

Times and Time Zones

All times are in EDT time to prevent confusion due to time zone crossing. See the UAL4695 flight status page for this flight to view local times or setup timezone preferences in your user account.

Time Position Orientation Groundspeed Altitude Reporting Facility
EDT Latitude Longitude Course Direction KTS MPH feet Rate Location/Type
Thu 05:44:33 PM 41.3131 -95.9119 78° East 189 217 1,400  Level Minneapolis Center
Thu 05:45:03 PM 41.3344 -95.9178 348° North 165 190 2,600 1,823 Climbing Minneapolis Center
Thu 05:45:52 PM 41.3619 -95.9067 17° North 173 199 3,800 2,216 Climbing Minneapolis Center
Thu 05:46:54 PM 41.3503 -95.8058 99° East 235 270 6,700 2,488 Climbing Minneapolis Center
Thu 05:47:55 PM 41.3275 -95.7317 112° Southeast 253 291 8,900 2,129 Climbing Minneapolis Center
Thu 05:48:00 PM 41.2081 -95.3973 78° East  Level FlightAware Approximate
Thu 05:48:58 PM 41.2933 -95.6111 111° Southeast 273 314 11,100  Level Minneapolis Center
Thu 05:49:00 PM 41.2298 -95.2563 78° East  Level FlightAware Approximate
Thu 05:50:00 PM 41.2819 -95.4897 97° East 311 358 12,800  Level Minneapolis Center
Thu 05:51:01 PM 41.2911 -95.3864 83° East 337 388 14,000 1,694 Climbing Minneapolis Center
Thu 05:52:04 PM 41.3081 -95.1981 83° East 363 418 16,300 1,920 Climbing Minneapolis Center
Thu 05:53:06 PM 41.3200 -95.0583 83° East 376 433 18,000 1,403 Climbing Minneapolis Center
Thu 05:54:08 PM 41.3317 -94.9178 84° East 381 438 19,200 1,415 Climbing Minneapolis Center
Thu 05:55:09 PM 41.3442 -94.7747 83° East 388 447 20,900 1,659 Climbing Minneapolis Center
Thu 05:56:11 PM 41.3561 -94.6294 84° East 392 451 22,600 1,694 Climbing Minneapolis Center
Thu 05:57:13 PM 41.3683 -94.4842 84° East 395 455 24,400 1,887 Climbing Minneapolis Center
Thu 05:58:15 PM 41.3828 -94.3128 84° East 392 451 26,500 1,694 Climbing Minneapolis Center
Thu 05:59:17 PM 41.3925 -94.1889 84° East 387 445 27,900 1,258 Climbing Minneapolis Center
Thu 06:00:19 PM 41.4042 -94.0467 84° East 387 445 29,100 1,161 Climbing Minneapolis Center
Thu 06:01:21 PM 41.4183 -93.8714 84° East 396 456 30,300 1,065 Climbing Minneapolis Center
Thu 06:02:23 PM 41.4297 -93.7217 84° East 404 465 31,300 968 Climbing Minneapolis Center
Thu 06:03:25 PM 41.4397 -93.5669 85° East 415 478 32,300 871 Climbing Minneapolis Center
Thu 06:04:27 PM 41.4486 -93.4072 86° East 427 491 33,100 732 Climbing Minneapolis Center
Thu 06:05:28 PM 41.4547 -93.2792 86° East 432 497 33,800 927 Climbing Minneapolis Center
Thu 06:06:30 PM 41.4633 -93.0861 87° East 435 501 35,000 581 Climbing Minneapolis Center
Thu 06:07:32 PM 41.4711 -92.9261 86° East 435 501 35,000  Level Minneapolis Center
Thu 06:08:34 PM 41.4797 -92.7231 87° East 449 517 35,000  Level Minneapolis Center
Thu 06:09:36 PM 41.4858 -92.5497 87° East 461 531 35,000  Level Minneapolis Center
Thu 06:10:06 PM 41.4881 -92.4811 88° East 461 531 35,000  Level Chicago Center
Thu 06:11:08 PM 41.4956 -92.3044 87° East 460 529 35,000  Level Chicago Center
Thu 06:12:10 PM 41.5019 -92.1050 87° East 455 524 35,000  Level Chicago Center
Thu 06:13:12 PM 41.5086 -91.9372 87° East 456 525 35,000  Level Chicago Center
Thu 06:14:15 PM 41.5139 -91.7703 88° East 456 525 35,000  Level Chicago Center
Thu 06:15:17 PM 41.5194 -91.6028 87° East 457 526 35,000  Level Chicago Center
Thu 06:16:19 PM 41.5242 -91.4017 88° East 458 527 35,000  Level Chicago Center
Thu 06:17:21 PM 41.5275 -91.2353 88° East 455 524 35,000  Level Chicago Center
Thu 06:18:23 PM 41.5306 -91.0689 89° East 453 521 35,000  Level Chicago Center
Thu 06:19:25 PM 41.5328 -90.9033 89° East 453 521 35,000  Level Chicago Center
Thu 06:20:27 PM 41.5356 -90.7364 89° East 454 522 35,000  Level Chicago Center
Thu 06:21:29 PM 41.5389 -90.5642 88° East 459 528 35,000  Level Chicago Center
Thu 06:22:31 PM 41.5414 -90.3606 89° East 458 527 35,000  Level Chicago Center
Thu 06:23:34 PM 41.5422 -90.1903 90° East 457 526 35,000  Level Chicago Center
Thu 06:24:36 PM 41.5439 -90.0192 89° East 460 529 35,000  Level Chicago Center
Thu 06:25:38 PM 41.5458 -89.8478 89° East 461 531 35,000  Level Chicago Center
Thu 06:26:40 PM 41.5472 -89.6758 89° East 461 531 35,000  Level Chicago Center
Thu 06:27:42 PM 41.5481 -89.4778 90° East 462 532 35,000  Level Chicago Center
Thu 06:28:44 PM 41.5486 -89.3078 90° East 461 531 35,000  Level Chicago Center
Thu 06:29:46 PM 41.5497 -89.1369 89° East 462 532 35,000  Level Chicago Center
Thu 06:30:48 PM 41.5481 -88.9647 91° East 465 535 35,000  Level Chicago Center
Thu 06:31:50 PM 41.5489 -88.7928 90° East 465 535 35,000  Level Chicago Center
Thu 06:32:52 PM 41.5486 -88.5875 90° East 464 534 35,000  Level Chicago Center
Thu 06:33:54 PM 41.5478 -88.4167 90° East 461 531 35,000  Level Chicago Center
Thu 06:34:56 PM 41.5547 -88.2431 87° East 466 536 35,000  Level Chicago Center
Thu 06:35:58 PM 41.5769 -88.0686 80° East 470 541 35,000 144 Level Chicago Center
Thu 06:37:01 PM 41.5975 -87.8950 81° East 468 539 35,300 624 Climbing Chicago Center
Thu 06:38:03 PM 41.6250 -87.7314 77° East 452 520 36,300 823 Climbing Chicago Center
Thu 06:39:05 PM 41.6528 -87.5717 77° East 445 512 37,000 339 Climbing Chicago Center
Thu 06:40:07 PM 41.6789 -87.3756 80° East 450 518 37,000  Level Chicago Center
Thu 06:41:09 PM 41.6981 -87.2097 81° East 453 521 37,000  Level Chicago Center
Thu 06:42:11 PM 41.7164 -87.0433 82° East 452 520 37,000  Level Chicago Center
Thu 06:43:13 PM 41.7339 -86.8756 82° East 455 524 37,000  Level Chicago Center
Thu 06:44:15 PM 41.7508 -86.7092 82° East 453 521 37,000  Level Chicago Center
Thu 06:45:17 PM 41.7672 -86.5358 83° East 456 525 37,000  Level Chicago Center
Thu 06:46:19 PM 41.7867 -86.3658 81° East 461 531 37,000  Level Chicago Center
Thu 06:47:21 PM 41.8064 -86.1636 82° East 457 526 37,000  Level Chicago Center
Thu 06:48:23 PM 41.8239 -85.9925 82° East 460 529 37,000  Level Chicago Center
Thu 06:49:26 PM 41.8406 -85.8239 82° East 457 526 37,000  Level Chicago Center
Thu 06:50:28 PM 41.8592 -85.6533 82° East 458 527 37,000  Level Chicago Center
Thu 06:51:30 PM 41.8758 -85.4822 82° East 458 527 37,000  Level Chicago Center
Thu 06:52:12 PM 41.8903 -85.3453 82° East 460 529 37,000  Level Cleveland Center
Thu 06:53:12 PM 41.9056 -85.1761 83° East 466 536 37,000  Level Cleveland Center
Thu 06:54:12 PM 41.9228 -85.0042 82° East 460 529 37,000  Level Cleveland Center
Thu 06:55:12 PM 41.9347 -84.8542 84° East 460 529 37,000  Level Cleveland Center
Thu 06:56:12 PM 41.9489 -84.6878 83° East 460 529 37,000  Level Cleveland Center
Thu 06:57:12 PM 41.9653 -84.5183 83° East 460 529 37,000  Level Cleveland Center
Thu 06:58:12 PM 41.9775 -84.3458 84° East 460 529 37,000  Level Cleveland Center
Thu 06:59:12 PM 41.9894 -84.1650 85° East 453 521 37,000  Level Cleveland Center
Thu 07:00:12 PM 42.0031 -83.9953 84° East 453 521 37,000  Level Cleveland Center
Thu 07:01:12 PM 42.0158 -83.8392 84° East 462 532 37,000  Level Cleveland Center
Thu 07:02:12 PM 42.0289 -83.6694 84° East 462 532 37,000  Level Cleveland Center
Thu 07:03:12 PM 42.0444 -83.4772 84° East 462 532 37,000  Level Cleveland Center
Thu 07:04:12 PM 42.0356 -83.3286 95° East 448 516 37,000  Level Cleveland Center
Thu 07:05:12 PM 42.0228 -83.1603 96° East 448 516 37,000  Level Cleveland Center
Thu 07:06:12 PM 42.0117 -82.9922 95° East 448 516 37,000  Level Cleveland Center
Thu 07:07:12 PM 41.9964 -82.8294 97° East 448 516 37,000  Level Cleveland Center
Thu 07:08:12 PM 41.9847 -82.6642 95° East 448 516 37,000  Level Cleveland Center
Thu 07:09:12 PM 41.9711 -82.4961 96° East 448 516 37,000  Level Cleveland Center
Thu 07:10:12 PM 41.9592 -82.3256 95° East 448 516 37,000  Level Cleveland Center
Thu 07:11:12 PM 41.9428 -82.1575 97° East 448 516 37,000  Level Cleveland Center
Thu 07:12:12 PM 41.9286 -81.9758 96° East 448 516 37,000  Level Cleveland Center
Thu 07:13:12 PM 41.9158 -81.8081 96° East 453 521 37,000  Level Cleveland Center
Thu 07:14:12 PM 41.8989 -81.6406 98° East 453 521 37,000  Level Cleveland Center
Thu 07:15:12 PM 41.8856 -81.4728 96° East 453 521 37,000  Level Cleveland Center
Thu 07:16:12 PM 41.8722 -81.3194 97° East 453 521 37,000  Level Cleveland Center
Thu 07:17:12 PM 41.8564 -81.1547 97° East 447 514 37,000  Level Cleveland Center
Thu 07:18:12 PM 41.8406 -80.9844 97° East 447 514 37,000  Level Cleveland Center
Thu 07:19:12 PM 41.8242 -80.8172 97° East 447 514 37,000  Level Cleveland Center
Thu 07:20:12 PM 41.8078 -80.6472 97° East 453 521 37,000  Level Cleveland Center
Thu 07:21:12 PM 41.7889 -80.4661 98° East 453 521 37,000  Level Cleveland Center
Thu 07:22:12 PM 41.7719 -80.2908 97° East 453 521 37,000  Level Cleveland Center
Thu 07:23:12 PM 41.7547 -80.1239 98° East 460 529 37,000  Level Cleveland Center
Thu 07:24:12 PM 41.7372 -79.9569 98° East 465 535 37,000  Level Cleveland Center
Thu 07:25:12 PM 41.7194 -79.7819 98° East 465 535 37,000  Level Cleveland Center
Thu 07:26:12 PM 41.7017 -79.6181 98° East 460 529 37,000  Level Cleveland Center
Thu 07:27:12 PM 41.6833 -79.4461 98° East 465 535 37,000  Level Cleveland Center
Thu 07:28:12 PM 41.6650 -79.2769 98° East 465 535 37,000  Level Cleveland Center
Thu 07:29:12 PM 41.6461 -79.1075 98° East 465 535 37,000 -200 Level Cleveland Center
Thu 07:30:12 PM 41.6250 -78.9386 99° East 465 535 36,600 -700 Descending Cleveland Center
Thu 07:31:12 PM 41.6081 -78.7669 97° East 465 535 35,600 -1,050 Descending Cleveland Center
Thu 07:32:12 PM 41.5864 -78.5956 100° East 465 535 34,500 -1,288 Descending Cleveland Center
Thu 07:34:23 PM 41.5469 -78.2414 98° East 449 517 31,500 -1,105 Descending New York Center
Thu 07:35:22 PM 41.5261 -78.0728 99° East 449 517 31,000 -250 Descending New York Center
Thu 07:36:23 PM 41.5028 -77.9067 101° East 449 517 31,000  Level New York Center
Thu 07:37:22 PM 41.4794 -77.7408 101° East 449 517 31,000  Level New York Center
Thu 07:38:22 PM 41.4578 -77.5753 100° East 455 524 31,000  Level New York Center
Thu 07:39:23 PM 41.4322 -77.4011 101° East 460 529 31,000  Level New York Center
Thu 07:40:21 PM 41.4058 -77.2353 102° East 454 522 31,000 -403 Level New York Center
Thu 07:41:22 PM 41.3817 -77.0669 101° East 454 522 30,200 -1,091 Descending New York Center
Thu 07:42:22 PM 41.3550 -76.8958 102° East 459 528 28,800 -1,587 Descending New York Center
Thu 07:43:23 PM 41.3242 -76.7272 104° East 464 534 27,000 -1,835 Descending New York Center
Thu 07:44:23 PM 41.2819 -76.5689 109° East 458 527 25,100 -2,000 Descending New York Center
Thu 07:45:23 PM 41.2375 -76.4106 110° East 458 527 23,000 -2,237 Descending New York Center
Thu 07:46:21 PM 41.1969 -76.2556 109° East 458 527 20,700 -2,390 Descending New York Center
Thu 07:47:21 PM 41.1597 -76.1119 109° East 435 501 18,300 -1,438 Descending New York Center
Thu 07:48:22 PM 41.1256 -75.9908 110° East 394 453 17,800 -1,587 Descending New York Center
Thu 07:49:22 PM 41.0881 -75.8475 109° East 380 437 15,100 -2,182 Descending New York Center
Thu 07:50:23 PM 41.0536 -75.7211 110° East 369 425 13,400 -1,059 Descending New York Center
Thu 07:51:21 PM 41.0192 -75.6003 111° Southeast 356 410 13,000 -763 Descending New York Center
Thu 07:52:21 PM 40.9864 -75.4853 111° Southeast 345 397 11,900 -1,240 Descending New York Center
Thu 07:53:22 PM 40.9592 -75.3817 109° East 311 358 10,500 -1,377 Descending New York Center
Thu 07:54:23 PM 40.9314 -75.2892 112° Southeast 284 327 9,100 -1,388 Descending New York Center
Thu 07:55:23 PM 40.9078 -75.1997 109° East 259 298 7,700 -1,050 Descending New York Center
Thu 07:56:23 PM 40.8817 -75.1156 112° Southeast 254 292 7,000 -356 Descending New York Center
Thu 07:57:21 PM 40.8578 -75.0319 111° Southeast 254 292 7,000  Level New York Center
Thu 07:58:22 PM 40.7997 -74.9597 137° Southeast 254 292 7,000  Level New York Center
Thu 07:59:24 PM 40.7436 -74.9014 142° Southeast 259 298 7,000 -353 Level New York Center
Thu 08:00:21 PM 40.7025 -74.8222 124° Southeast 258 297 6,300 -513 Descending New York Center
Thu 08:01:21 PM 40.6803 -74.7444 111° Southeast 258 297 6,000 -149 Descending New York Center
Thu 08:02:22 PM 40.7406 -74.6850 37° Northeast 207 238 6,000  Level New York Center
Thu 08:03:23 PM 40.8019 -74.6500 23° Northeast 232 267 6,000  Level New York Center
Thu 08:04:21 PM 40.8783 -74.6078 23° Northeast 260 299 6,000  Level New York Center
Thu 08:05:22 PM 40.9381 -74.5700 26° Northeast 260 299 6,000  Level New York Center
Thu 08:06:22 PM 40.9594 -74.4858 71° East 222 255 6,000 -397 Level New York Center
Thu 08:07:23 PM 40.9639 -74.4119 85° East 206 237 5,200 -496 Descending New York Center
Thu 08:08:23 PM 40.9683 -74.3325 86° East 212 244 5,000 -500 Descending New York Center
Thu 08:09:35 PM 40.9500 -74.2500 106° East 196 226 4,100 -857 Descending New York TRACON
Thu 08:10:29 PM 40.9333 -74.1833 108° East 204 235 3,200 -496 Descending New York TRACON
Thu 08:11:36 PM 40.9167 -74.1000 105° East 206 237 3,100 -94 Descending New York TRACON
Thu 08:12:36 PM 40.8667 -74.0667 153° Southeast 197 227 3,000 -150 Descending New York TRACON
Thu 08:13:36 PM 40.8167 -74.0833 194° South 191 220 2,800 -550 Descending New York TRACON
Thu 08:14:36 PM 40.7833 -74.1167 217° Southwest 160 184 1,900 -900 Descending New York TRACON

Login

Don't have an account? Register now (free) for customized features, flight alerts, and more!